sensor_id;sensor_type;location;lat;lon;timestamp;pressure;altitude;pressure_sealevel;temperature;humidity
25855;BME280;13680;49.936;11.344;2023-07-20T00:01:04;96423.41;;;19.05;70.68
25855;BME280;13680;49.936;11.344;2023-07-20T00:03:29;96442.78;;;19.00;71.19
25855;BME280;13680;49.936;11.344;2023-07-20T00:05:55;96438.53;;;18.83;72.91
25855;BME280;13680;49.936;11.344;2023-07-20T00:08:20;96437.81;;;18.66;74.31
25855;BME280;13680;49.936;11.344;2023-07-20T00:10:46;96439.56;;;18.74;74.54
25855;BME280;13680;49.936;11.344;2023-07-20T00:13:11;96442.09;;;18.87;74.03
25855;BME280;13680;49.936;11.344;2023-07-20T00:15:37;96441.66;;;19.04;72.80
25855;BME280;13680;49.936;11.344;2023-07-20T00:18:03;96435.50;;;19.07;72.59
25855;BME280;13680;49.936;11.344;2023-07-20T00:20:29;96440.66;;;19.12;72.80
25855;BME280;13680;49.936;11.344;2023-07-20T00:22:54;96432.09;;;19.14;72.38
25855;BME280;13680;49.936;11.344;2023-07-20T00:25:20;96440.97;;;19.07;72.75
25855;BME280;13680;49.936;11.344;2023-07-20T00:27:46;96439.19;;;19.19;72.18
25855;BME280;13680;49.936;11.344;2023-07-20T00:30:11;96446.50;;;19.14;72.77
25855;BME280;13680;49.936;11.344;2023-07-20T00:32:37;96444.16;;;19.13;72.62
25855;BME280;13680;49.936;11.344;2023-07-20T00:35:02;96442.22;;;19.13;72.62
25855;BME280;13680;49.936;11.344;2023-07-20T00:37:28;96439.84;;;19.12;72.31
25855;BME280;13680;49.936;11.344;2023-07-20T00:39:54;96434.78;;;19.10;72.51
25855;BME280;13680;49.936;11.344;2023-07-20T00:42:19;96435.19;;;19.12;71.85
25855;BME280;13680;49.936;11.344;2023-07-20T00:44:44;96425.84;;;19.13;71.88
25855;BME280;13680;49.936;11.344;2023-07-20T00:47:10;96430.09;;;19.11;71.54
25855;BME280;13680;49.936;11.344;2023-07-20T00:49:36;96425.75;;;19.06;71.74
25855;BME280;13680;49.936;11.344;2023-07-20T00:52:03;96426.13;;;19.05;71.32
25855;BME280;13680;49.936;11.344;2023-07-20T00:54:28;96419.47;;;19.02;71.60
25855;BME280;13680;49.936;11.344;2023-07-20T00:56:54;96416.72;;;19.02;71.17
25855;BME280;13680;49.936;11.344;2023-07-20T00:59:20;96421.81;;;19.04;71.39
25855;BME280;13680;49.936;11.344;2023-07-20T01:01:46;96422.06;;;18.95;72.12
25855;BME280;13680;49.936;11.344;2023-07-20T01:04:11;96424.19;;;18.86;71.63
25855;BME280;13680;49.936;11.344;2023-07-20T01:06:53;96431.00;;;18.76;71.98
25855;BME280;13680;49.936;11.344;2023-07-20T01:09:27;96441.84;;;18.72;72.09
25855;BME280;13680;49.936;11.344;2023-07-20T01:12:00;96433.31;;;18.74;71.79
25855;BME280;13680;49.936;11.344;2023-07-20T01:14:28;96435.69;;;18.75;71.42
25855;BME280;13680;49.936;11.344;2023-07-20T01:16:54;96430.94;;;18.72;71.44
25855;BME280;13680;49.936;11.344;2023-07-20T01:19:20;96428.16;;;18.69;71.86
25855;BME280;13680;49.936;11.344;2023-07-20T01:21:53;96419.91;;;18.65;71.80
25855;BME280;13680;49.936;11.344;2023-07-20T01:27:19;96421.31;;;18.55;72.70
25855;BME280;13680;49.936;11.344;2023-07-20T01:32:32;96426.97;;;18.46;71.97
25855;BME280;13680;49.936;11.344;2023-07-20T01:34:59;96424.59;;;18.45;72.07
25855;BME280;13680;49.936;11.344;2023-07-20T01:37:25;96424.91;;;18.40;72.80
25855;BME280;13680;49.936;11.344;2023-07-20T01:39:55;96417.44;;;18.37;72.36
25855;BME280;13680;49.936;11.344;2023-07-20T01:42:22;96426.25;;;18.30;72.13
25855;BME280;13680;49.936;11.344;2023-07-20T01:44:50;96419.78;;;18.19;72.27
25855;BME280;13680;49.936;11.344;2023-07-20T01:47:16;96417.28;;;18.10;72.89
25855;BME280;13680;49.936;11.344;2023-07-20T01:49:41;96414.63;;;18.13;72.41
25855;BME280;13680;49.936;11.344;2023-07-20T01:52:07;96406.47;;;18.13;72.07
25855;BME280;13680;49.936;11.344;2023-07-20T01:54:32;96416.97;;;17.95;72.97
25855;BME280;13680;49.936;11.344;2023-07-20T01:56:57;96420.31;;;17.89;73.65
25855;BME280;13680;49.936;11.344;2023-07-20T01:59:23;96424.44;;;17.82;74.30
25855;BME280;13680;49.936;11.344;2023-07-20T02:01:48;96425.41;;;17.74;74.00
25855;BME280;13680;49.936;11.344;2023-07-20T02:04:14;96426.34;;;17.62;74.92
25855;BME280;13680;49.936;11.344;2023-07-20T02:06:39;96418.94;;;17.63;74.91
25855;BME280;13680;49.936;11.344;2023-07-20T02:09:04;96422.88;;;17.65;74.27
25855;BME280;13680;49.936;11.344;2023-07-20T02:11:29;96419.06;;;17.50;74.92
25855;BME280;13680;49.936;11.344;2023-07-20T02:13:55;96413.91;;;17.45;75.06
25855;BME280;13680;49.936;11.344;2023-07-20T02:16:20;96418.72;;;17.36;75.99
25855;BME280;13680;49.936;11.344;2023-07-20T02:18:45;96421.09;;;17.38;75.65
25855;BME280;13680;49.936;11.344;2023-07-20T02:21:11;96419.16;;;17.38;76.06
25855;BME280;13680;49.936;11.344;2023-07-20T02:23:36;96414.28;;;17.28;76.93
25855;BME280;13680;49.936;11.344;2023-07-20T02:26:01;96412.88;;;17.34;76.72
25855;BME280;13680;49.936;11.344;2023-07-20T02:28:27;96416.28;;;17.31;76.47
25855;BME280;13680;49.936;11.344;2023-07-20T02:30:52;96421.09;;;17.22;77.01
25855;BME280;13680;49.936;11.344;2023-07-20T02:33:18;96423.47;;;17.23;76.99
25855;BME280;13680;49.936;11.344;2023-07-20T02:35:45;96421.72;;;17.31;76.86
25855;BME280;13680;49.936;11.344;2023-07-20T02:38:10;96425.06;;;17.40;76.37
25855;BME280;13680;49.936;11.344;2023-07-20T02:40:35;96426.59;;;17.41;75.70
25855;BME280;13680;49.936;11.344;2023-07-20T02:43:01;96433.03;;;17.33;76.06
25855;BME280;13680;49.936;11.344;2023-07-20T02:45:26;96433.63;;;17.42;75.22
25855;BME280;13680;49.936;11.344;2023-07-20T02:47:51;96441.63;;;17.35;75.68
25855;BME280;13680;49.936;11.344;2023-07-20T02:50:17;96445.56;;;17.22;75.93
25855;BME280;13680;49.936;11.344;2023-07-20T02:52:42;96453.81;;;17.25;76.35
25855;BME280;13680;49.936;11.344;2023-07-20T02:55:08;96443.44;;;17.31;75.99
25855;BME280;13680;49.936;11.344;2023-07-20T02:57:33;96457.75;;;17.28;75.60
25855;BME280;13680;49.936;11.344;2023-07-20T02:59:58;96466.34;;;17.30;76.06
25855;BME280;13680;49.936;11.344;2023-07-20T03:02:24;96464.06;;;17.32;75.51
25855;BME280;13680;49.936;11.344;2023-07-20T03:04:50;96467.56;;;17.32;75.70
25855;BME280;13680;49.936;11.344;2023-07-20T03:07:15;96463.09;;;17.40;75.85
25855;BME280;13680;49.936;11.344;2023-07-20T03:09:40;96466.34;;;17.46;75.29
25855;BME280;13680;49.936;11.344;2023-07-20T03:12:06;96465.91;;;17.28;76.02
25855;BME280;13680;49.936;11.344;2023-07-20T03:14:32;96465.38;;;17.38;76.15
25855;BME280;13680;49.936;11.344;2023-07-20T03:16:57;96471.00;;;17.45;75.54
25855;BME280;13680;49.936;11.344;2023-07-20T03:19:22;96473.00;;;17.48;75.52
25855;BME280;13680;49.936;11.344;2023-07-20T03:21:48;96462.66;;;17.54;75.76
25855;BME280;13680;49.936;11.344;2023-07-20T03:24:13;96468.25;;;17.61;75.02
25855;BME280;13680;49.936;11.344;2023-07-20T03:26:39;96470.19;;;17.61;75.27
25855;BME280;13680;49.936;11.344;2023-07-20T03:29:04;96479.47;;;17.60;75.26
25855;BME280;13680;49.936;11.344;2023-07-20T03:31:30;96485.19;;;17.55;76.15
25855;BME280;13680;49.936;11.344;2023-07-20T03:33:55;96482.81;;;17.53;76.50
25855;BME280;13680;49.936;11.344;2023-07-20T03:36:21;96478.25;;;17.57;76.30
25855;BME280;13680;49.936;11.344;2023-07-20T03:38:47;96482.03;;;17.53;76.35
25855;BME280;13680;49.936;11.344;2023-07-20T03:41:12;96470.59;;;17.63;76.04
25855;BME280;13680;49.936;11.344;2023-07-20T03:43:38;96473.78;;;17.65;76.04
25855;BME280;13680;49.936;11.344;2023-07-20T03:46:03;96481.50;;;17.63;75.69
25855;BME280;13680;49.936;11.344;2023-07-20T03:48:32;96476.50;;;17.65;75.25
25855;BME280;13680;49.936;11.344;2023-07-20T03:50:58;96490.72;;;17.58;75.92
25855;BME280;13680;49.936;11.344;2023-07-20T03:53:23;96489.22;;;17.61;76.06
25855;BME280;13680;49.936;11.344;2023-07-20T03:55:50;96493.78;;;17.57;76.48
25855;BME280;13680;49.936;11.344;2023-07-20T03:58:16;96486.06;;;17.59;76.73
25855;BME280;13680;49.936;11.344;2023-07-20T04:00:49;96491.94;;;17.61;76.69
25855;BME280;13680;49.936;11.344;2023-07-20T04:03:16;96486.88;;;17.59;77.01
25855;BME280;13680;49.936;11.344;2023-07-20T04:05:42;96493.59;;;17.49;77.41
25855;BME280;13680;49.936;11.344;2023-07-20T04:08:07;96499.91;;;17.54;76.85
25855;BME280;13680;49.936;11.344;2023-07-20T04:10:32;96497.81;;;17.63;76.63
25855;BME280;13680;49.936;11.344;2023-07-20T04:12:58;96501.75;;;17.49;76.48
25855;BME280;13680;49.936;11.344;2023-07-20T04:15:23;96513.06;;;17.51;76.85
25855;BME280;13680;49.936;11.344;2023-07-20T04:17:48;96505.44;;;17.57;76.30
25855;BME280;13680;49.936;11.344;2023-07-20T04:20:14;96502.28;;;17.55;76.12
25855;BME280;13680;49.936;11.344;2023-07-20T04:22:39;96504.72;;;17.60;75.68
25855;BME280;13680;49.936;11.344;2023-07-20T04:25:04;96509.84;;;17.62;75.69
25855;BME280;13680;49.936;11.344;2023-07-20T04:27:30;96513.44;;;17.66;75.30
25855;BME280;13680;49.936;11.344;2023-07-20T04:29:57;96510.84;;;17.73;75.44
25855;BME280;13680;49.936;11.344;2023-07-20T04:32:23;96511.91;;;17.84;75.40
25855;BME280;13680;49.936;11.344;2023-07-20T04:34:48;96512.09;;;17.92;75.40
25855;BME280;13680;49.936;11.344;2023-07-20T04:37:13;96508.06;;;18.02;74.63
25855;BME280;13680;49.936;11.344;2023-07-20T04:39:38;96509.78;;;18.10;74.40
25855;BME280;13680;49.936;11.344;2023-07-20T04:42:04;96516.31;;;18.05;74.43
25855;BME280;13680;49.936;11.344;2023-07-20T04:44:30;96513.75;;;18.12;73.80
25855;BME280;13680;49.936;11.344;2023-07-20T04:46:55;96523.56;;;18.17;73.99
25855;BME280;13680;49.936;11.344;2023-07-20T04:49:20;96512.41;;;18.22;74.05
25855;BME280;13680;49.936;11.344;2023-07-20T04:51:46;96521.06;;;18.28;73.66
25855;BME280;13680;49.936;11.344;2023-07-20T04:54:11;96519.34;;;18.20;73.48
25855;BME280;13680;49.936;11.344;2023-07-20T04:56:36;96526.97;;;18.30;73.78
25855;BME280;13680;49.936;11.344;2023-07-20T04:59:02;96526.22;;;18.33;73.55
25855;BME280;13680;49.936;11.344;2023-07-20T05:01:27;96527.50;;;18.20;73.01
25855;BME280;13680;49.936;11.344;2023-07-20T05:03:53;96526.75;;;18.39;73.45
25855;BME280;13680;49.936;11.344;2023-07-20T05:06:18;96529.38;;;18.51;71.90
25855;BME280;13680;49.936;11.344;2023-07-20T05:08:44;96521.84;;;18.64;72.62
25855;BME280;13680;49.936;11.344;2023-07-20T05:11:10;96524.56;;;18.84;71.90
25855;BME280;13680;49.936;11.344;2023-07-20T05:13:36;96525.00;;;19.05;71.63
25855;BME280;13680;49.936;11.344;2023-07-20T05:16:01;96526.69;;;19.13;71.66
25855;BME280;13680;49.936;11.344;2023-07-20T05:18:27;96521.94;;;19.30;70.35
25855;BME280;13680;49.936;11.344;2023-07-20T05:20:52;96516.84;;;19.28;68.89
25855;BME280;13680;49.936;11.344;2023-07-20T05:23:19;96523.81;;;19.26;68.22
25855;BME280;13680;49.936;11.344;2023-07-20T05:25:45;96523.03;;;19.25;68.52
25855;BME280;13680;49.936;11.344;2023-07-20T05:28:10;96526.59;;;19.06;69.18
25855;BME280;13680;49.936;11.344;2023-07-20T05:30:35;96530.41;;;19.25;68.09
25855;BME280;13680;49.936;11.344;2023-07-20T05:33:01;96534.41;;;19.31;67.61
25855;BME280;13680;49.936;11.344;2023-07-20T05:35:26;96521.97;;;19.53;66.94
25855;BME280;13680;49.936;11.344;2023-07-20T05:37:52;96521.63;;;19.82;66.37
25855;BME280;13680;49.936;11.344;2023-07-20T05:40:17;96518.00;;;19.97;65.87
25855;BME280;13680;49.936;11.344;2023-07-20T05:42:47;96526.19;;;19.97;65.33
25855;BME280;13680;49.936;11.344;2023-07-20T05:45:14;96523.41;;;20.20;63.80
25855;BME280;13680;49.936;11.344;2023-07-20T05:47:39;96524.66;;;20.26;63.27
25855;BME280;13680;49.936;11.344;2023-07-20T05:50:05;96528.72;;;20.40;63.33
25855;BME280;13680;49.936;11.344;2023-07-20T05:52:30;96523.28;;;20.40;62.60
25855;BME280;13680;49.936;11.344;2023-07-20T05:54:56;96522.09;;;20.10;61.52
25855;BME280;13680;49.936;11.344;2023-07-20T05:57:21;96520.66;;;19.93;61.60
25855;BME280;13680;49.936;11.344;2023-07-20T05:59:46;96530.38;;;20.18;61.27
25855;BME280;13680;49.936;11.344;2023-07-20T06:02:12;96526.91;;;19.71;61.93
25855;BME280;13680;49.936;11.344;2023-07-20T06:04:38;96530.75;;;20.43;60.85
25855;BME280;13680;49.936;11.344;2023-07-20T06:07:04;96530.88;;;20.54;58.64
25855;BME280;13680;49.936;11.344;2023-07-20T06:09:30;96530.44;;;20.79;59.03
25855;BME280;13680;49.936;11.344;2023-07-20T06:11:55;96525.56;;;20.95;58.79
25855;BME280;13680;49.936;11.344;2023-07-20T06:14:21;96531.94;;;21.06;58.26
25855;BME280;13680;49.936;11.344;2023-07-20T06:16:46;96520.72;;;21.15;57.30
25855;BME280;13680;49.936;11.344;2023-07-20T06:19:12;96520.13;;;21.36;56.68
25855;BME280;13680;49.936;11.344;2023-07-20T06:21:38;96521.00;;;21.10;56.71
25855;BME280;13680;49.936;11.344;2023-07-20T06:24:03;96519.00;;;21.41;55.91
25855;BME280;13680;49.936;11.344;2023-07-20T06:26:28;96529.75;;;21.61;55.04
25855;BME280;13680;49.936;11.344;2023-07-20T06:28:55;96527.97;;;21.79;56.69
25855;BME280;13680;49.936;11.344;2023-07-20T06:31:21;96522.75;;;21.67;54.93
25855;BME280;13680;49.936;11.344;2023-07-20T06:33:46;96524.50;;;21.45;55.19
25855;BME280;13680;49.936;11.344;2023-07-20T06:36:12;96527.50;;;21.32;56.09
25855;BME280;13680;49.936;11.344;2023-07-20T06:38:37;96523.78;;;21.51;55.04
25855;BME280;13680;49.936;11.344;2023-07-20T06:41:02;96520.19;;;21.88;54.03
25855;BME280;13680;49.936;11.344;2023-07-20T06:43:28;96522.53;;;21.04;55.02
25855;BME280;13680;49.936;11.344;2023-07-20T06:45:53;96521.56;;;21.23;54.08
25855;BME280;13680;49.936;11.344;2023-07-20T06:48:19;96517.09;;;21.07;53.93
25855;BME280;13680;49.936;11.344;2023-07-20T06:50:44;96519.09;;;21.52;53.93
25855;BME280;13680;49.936;11.344;2023-07-20T06:53:09;96530.06;;;21.14;54.29
25855;BME280;13680;49.936;11.344;2023-07-20T06:55:34;96526.94;;;20.82;55.88
25855;BME280;13680;49.936;11.344;2023-07-20T06:58:00;96524.97;;;21.13;54.05
25855;BME280;13680;49.936;11.344;2023-07-20T07:00:25;96519.09;;;21.11;53.46
25855;BME280;13680;49.936;11.344;2023-07-20T07:02:50;96513.41;;;21.30;53.20
25855;BME280;13680;49.936;11.344;2023-07-20T07:05:16;96522.19;;;21.50;52.34
25855;BME280;13680;49.936;11.344;2023-07-20T07:07:41;96522.63;;;21.15;52.49
25855;BME280;13680;49.936;11.344;2023-07-20T07:10:07;96530.75;;;21.07;52.66
25855;BME280;13680;49.936;11.344;2023-07-20T07:12:33;96534.72;;;21.51;51.46
25855;BME280;13680;49.936;11.344;2023-07-20T07:14:59;96523.31;;;21.42;51.95
25855;BME280;13680;49.936;11.344;2023-07-20T07:17:25;96545.41;;;21.64;50.28
25855;BME280;13680;49.936;11.344;2023-07-20T07:19:52;96536.38;;;22.08;49.86
25855;BME280;13680;49.936;11.344;2023-07-20T07:22:20;96530.91;;;21.22;51.84
25855;BME280;13680;49.936;11.344;2023-07-20T07:24:46;96529.03;;;21.30;51.95
25855;BME280;13680;49.936;11.344;2023-07-20T07:27:11;96530.09;;;21.55;52.17
25855;BME280;13680;49.936;11.344;2023-07-20T07:29:37;96530.44;;;21.13;52.58
25855;BME280;13680;49.936;11.344;2023-07-20T07:32:03;96527.53;;;21.36;51.05
25855;BME280;13680;49.936;11.344;2023-07-20T07:34:28;96527.03;;;21.64;50.32
25855;BME280;13680;49.936;11.344;2023-07-20T07:36:53;96530.22;;;22.26;48.92
25855;BME280;13680;49.936;11.344;2023-07-20T07:39:19;96512.91;;;22.81;47.35
25855;BME280;13680;49.936;11.344;2023-07-20T07:41:44;96510.63;;;23.04;47.16
25855;BME280;13680;49.936;11.344;2023-07-20T07:44:10;96508.94;;;22.67;46.79
25855;BME280;13680;49.936;11.344;2023-07-20T07:46:35;96520.81;;;23.04;45.91
25855;BME280;13680;49.936;11.344;2023-07-20T07:49:00;96512.81;;;22.52;46.38
25855;BME280;13680;49.936;11.344;2023-07-20T07:51:26;96506.97;;;22.64;46.37
25855;BME280;13680;49.936;11.344;2023-07-20T07:53:52;96530.66;;;22.35;47.60
25855;BME280;13680;49.936;11.344;2023-07-20T07:56:17;96514.34;;;22.49;47.23
25855;BME280;13680;49.936;11.344;2023-07-20T07:58:46;96516.63;;;21.81;49.03
25855;BME280;13680;49.936;11.344;2023-07-20T08:01:11;96528.47;;;21.13;48.82
25855;BME280;13680;49.936;11.344;2023-07-20T08:03:37;96528.78;;;21.87;47.43
25855;BME280;13680;49.936;11.344;2023-07-20T08:06:02;96522.53;;;22.42;47.25
25855;BME280;13680;49.936;11.344;2023-07-20T08:08:29;96517.63;;;22.80;45.48
25855;BME280;13680;49.936;11.344;2023-07-20T08:10:55;96531.13;;;23.47;44.92
25855;BME280;13680;49.936;11.344;2023-07-20T08:13:20;96528.19;;;22.85;44.60
25855;BME280;13680;49.936;11.344;2023-07-20T08:15:49;96517.28;;;23.03;45.10
25855;BME280;13680;49.936;11.344;2023-07-20T08:18:16;96515.06;;;23.63;42.77
25855;BME280;13680;49.936;11.344;2023-07-20T08:20:45;96511.09;;;23.28;44.16
25855;BME280;13680;49.936;11.344;2023-07-20T08:23:10;96512.34;;;24.07;43.46
25855;BME280;13680;49.936;11.344;2023-07-20T08:25:36;96524.06;;;24.29;42.70
25855;BME280;13680;49.936;11.344;2023-07-20T08:28:04;96522.09;;;24.33;41.02
25855;BME280;13680;49.936;11.344;2023-07-20T08:30:48;96519.78;;;23.81;42.08
25855;BME280;13680;49.936;11.344;2023-07-20T08:33:15;96523.69;;;23.58;42.35
25855;BME280;13680;49.936;11.344;2023-07-20T08:35:41;96520.97;;;23.87;43.12
25855;BME280;13680;49.936;11.344;2023-07-20T08:38:06;96521.38;;;24.00;42.05
25855;BME280;13680;49.936;11.344;2023-07-20T08:40:33;96517.81;;;24.07;41.05
25855;BME280;13680;49.936;11.344;2023-07-20T08:43:04;96521.31;;;24.36;41.60
25855;BME280;13680;49.936;11.344;2023-07-20T08:45:30;96517.03;;;23.74;40.74
25855;BME280;13680;49.936;11.344;2023-07-20T08:48:01;96518.97;;;24.31;41.03
25855;BME280;13680;49.936;11.344;2023-07-20T08:50:30;96522.53;;;24.06;40.13
25855;BME280;13680;49.936;11.344;2023-07-20T08:52:57;96513.88;;;24.33;40.73
25855;BME280;13680;49.936;11.344;2023-07-20T08:55:23;96524.13;;;24.04;41.15
25855;BME280;13680;49.936;11.344;2023-07-20T08:57:50;96525.66;;;23.76;41.80
25855;BME280;13680;49.936;11.344;2023-07-20T09:00:19;96526.03;;;23.49;42.26
25855;BME280;13680;49.936;11.344;2023-07-20T09:02:45;96521.69;;;23.30;42.92
25855;BME280;13680;49.936;11.344;2023-07-20T09:05:11;96534.31;;;23.99;41.17
25855;BME280;13680;49.936;11.344;2023-07-20T09:07:39;96534.72;;;24.05;40.40
25855;BME280;13680;49.936;11.344;2023-07-20T09:10:06;96536.63;;;23.68;41.55
25855;BME280;13680;49.936;11.344;2023-07-20T09:12:35;96524.03;;;24.43;41.59
25855;BME280;13680;49.936;11.344;2023-07-20T09:15:00;96524.50;;;23.69;41.80
25855;BME280;13680;49.936;11.344;2023-07-20T09:17:26;96528.00;;;23.48;41.72
25855;BME280;13680;49.936;11.344;2023-07-20T09:19:52;96529.56;;;23.64;42.17
25855;BME280;13680;49.936;11.344;2023-07-20T09:22:17;96533.13;;;24.00;41.08
25855;BME280;13680;49.936;11.344;2023-07-20T09:24:43;96530.38;;;23.93;40.53
25855;BME280;13680;49.936;11.344;2023-07-20T09:27:09;96524.47;;;24.34;40.78
25855;BME280;13680;49.936;11.344;2023-07-20T09:29:47;96529.69;;;25.07;39.00
25855;BME280;13680;49.936;11.344;2023-07-20T09:32:18;96535.44;;;25.41;39.34
25855;BME280;13680;49.936;11.344;2023-07-20T09:34:43;96536.84;;;26.17;38.17
25855;BME280;13680;49.936;11.344;2023-07-20T09:37:08;96533.69;;;25.65;37.33
25855;BME280;13680;49.936;11.344;2023-07-20T09:39:42;96522.66;;;25.06;37.90
25855;BME280;13680;49.936;11.344;2023-07-20T09:42:08;96518.91;;;25.41;37.37
25855;BME280;13680;49.936;11.344;2023-07-20T09:44:34;96529.78;;;25.63;36.25
25855;BME280;13680;49.936;11.344;2023-07-20T09:46:59;96524.94;;;25.78;36.85
25855;BME280;13680;49.936;11.344;2023-07-20T09:49:26;96523.19;;;25.98;36.76
25855;BME280;13680;49.936;11.344;2023-07-20T09:51:53;96515.78;;;25.92;37.70
25855;BME280;13680;49.936;11.344;2023-07-20T09:54:21;96522.59;;;25.80;37.19
25855;BME280;13680;49.936;11.344;2023-07-20T09:56:48;96535.06;;;25.39;37.76
25855;BME280;13680;49.936;11.344;2023-07-20T09:59:14;96529.97;;;25.38;38.26
25855;BME280;13680;49.936;11.344;2023-07-20T10:01:41;96530.94;;;24.98;37.85
25855;BME280;13680;49.936;11.344;2023-07-20T10:04:08;96530.63;;;24.78;38.46
25855;BME280;13680;49.936;11.344;2023-07-20T10:06:35;96531.13;;;24.30;38.04
25855;BME280;13680;49.936;11.344;2023-07-20T10:09:03;96529.56;;;24.29;38.73
25855;BME280;13680;49.936;11.344;2023-07-20T10:11:35;96534.25;;;24.43;38.74
25855;BME280;13680;49.936;11.344;2023-07-20T10:14:03;96534.22;;;24.50;38.77
25855;BME280;13680;49.936;11.344;2023-07-20T10:16:40;96541.38;;;24.04;39.97
25855;BME280;13680;49.936;11.344;2023-07-20T10:19:27;96540.47;;;24.61;39.42
25855;BME280;13680;49.936;11.344;2023-07-20T10:22:14;96534.44;;;25.03;38.61
25855;BME280;13680;49.936;11.344;2023-07-20T10:24:44;96531.91;;;25.33;38.04
25855;BME280;13680;49.936;11.344;2023-07-20T10:27:10;96526.28;;;24.84;39.05
25855;BME280;13680;49.936;11.344;2023-07-20T10:29:36;96525.63;;;24.33;39.61
25855;BME280;13680;49.936;11.344;2023-07-20T10:32:02;96532.31;;;25.39;39.28
25855;BME280;13680;49.936;11.344;2023-07-20T10:34:28;96524.66;;;24.98;39.25
25855;BME280;13680;49.936;11.344;2023-07-20T10:36:53;96518.25;;;25.15;37.94
25855;BME280;13680;49.936;11.344;2023-07-20T10:39:26;96524.03;;;25.43;38.44
25855;BME280;13680;49.936;11.344;2023-07-20T10:42:03;96527.53;;;24.69;38.65
25855;BME280;13680;49.936;11.344;2023-07-20T10:44:31;96518.19;;;24.16;38.49
25855;BME280;13680;49.936;11.344;2023-07-20T10:47:09;96510.41;;;25.14;37.21
25855;BME280;13680;49.936;11.344;2023-07-20T10:49:35;96509.44;;;25.49;36.16
25855;BME280;13680;49.936;11.344;2023-07-20T10:52:04;96502.56;;;25.12;36.36
25855;BME280;13680;49.936;11.344;2023-07-20T10:57:27;96495.25;;;25.51;37.00
25855;BME280;13680;49.936;11.344;2023-07-20T11:00:07;96496.00;;;26.04;34.34
25855;BME280;13680;49.936;11.344;2023-07-20T11:02:45;96498.31;;;26.51;31.85
25855;BME280;13680;49.936;11.344;2023-07-20T11:05:33;96483.56;;;25.32;32.36
25855;BME280;13680;49.936;11.344;2023-07-20T11:08:12;96495.81;;;25.80;32.10
25855;BME280;13680;49.936;11.344;2023-07-20T11:10:38;96471.88;;;26.88;30.74
25855;BME280;13680;49.936;11.344;2023-07-20T11:13:17;96476.59;;;27.93;31.31
25855;BME280;13680;49.936;11.344;2023-07-20T11:18:12;96469.16;;;27.90;30.21
25855;BME280;13680;49.936;11.344;2023-07-20T11:20:38;96482.06;;;27.97;30.53
25855;BME280;13680;49.936;11.344;2023-07-20T11:23:03;96481.28;;;26.91;32.22
25855;BME280;13680;49.936;11.344;2023-07-20T11:25:39;96474.41;;;26.75;31.49
25855;BME280;13680;49.936;11.344;2023-07-20T11:28:08;96480.66;;;26.79;32.86
25855;BME280;13680;49.936;11.344;2023-07-20T11:30:39;96477.22;;;26.99;33.52
25855;BME280;13680;49.936;11.344;2023-07-20T11:33:05;96484.22;;;26.76;34.09
25855;BME280;13680;49.936;11.344;2023-07-20T11:35:34;96487.19;;;25.78;35.77
25855;BME280;13680;49.936;11.344;2023-07-20T11:38:00;96488.53;;;26.01;36.08
25855;BME280;13680;49.936;11.344;2023-07-20T11:40:25;96489.56;;;26.56;35.91
25855;BME280;13680;49.936;11.344;2023-07-20T11:42:51;96490.56;;;26.39;35.86
25855;BME280;13680;49.936;11.344;2023-07-20T11:45:17;96486.56;;;26.43;36.14
25855;BME280;13680;49.936;11.344;2023-07-20T11:47:43;96484.97;;;26.46;36.59
25855;BME280;13680;49.936;11.344;2023-07-20T11:50:09;96490.97;;;26.72;35.89
25855;BME280;13680;49.936;11.344;2023-07-20T11:52:35;96483.81;;;26.78;35.06
25855;BME280;13680;49.936;11.344;2023-07-20T11:55:02;96488.56;;;26.77;34.89
25855;BME280;13680;49.936;11.344;2023-07-20T11:57:28;96490.31;;;26.60;35.72
25855;BME280;13680;49.936;11.344;2023-07-20T11:59:55;96493.91;;;25.74;35.98
25855;BME280;13680;49.936;11.344;2023-07-20T12:02:23;96496.06;;;26.39;36.25
25855;BME280;13680;49.936;11.344;2023-07-20T12:04:50;96493.75;;;26.34;36.15
25855;BME280;13680;49.936;11.344;2023-07-20T12:07:15;96482.53;;;26.86;35.53
25855;BME280;13680;49.936;11.344;2023-07-20T12:09:41;96476.16;;;27.20;34.16
25855;BME280;13680;49.936;11.344;2023-07-20T12:12:10;96478.19;;;27.16;34.82
25855;BME280;13680;49.936;11.344;2023-07-20T12:14:37;96477.03;;;27.14;34.02
25855;BME280;13680;49.936;11.344;2023-07-20T12:17:02;96482.38;;;26.28;34.90
25855;BME280;13680;49.936;11.344;2023-07-20T12:19:27;96478.94;;;26.55;34.80
25855;BME280;13680;49.936;11.344;2023-07-20T12:21:57;96470.59;;;26.27;35.03
25855;BME280;13680;49.936;11.344;2023-07-20T12:24:24;96476.94;;;25.79;36.04
25855;BME280;13680;49.936;11.344;2023-07-20T12:26:56;96480.69;;;26.00;35.19
25855;BME280;13680;49.936;11.344;2023-07-20T12:29:22;96472.38;;;26.03;35.73
25855;BME280;13680;49.936;11.344;2023-07-20T12:31:48;96478.78;;;25.93;35.82
25855;BME280;13680;49.936;11.344;2023-07-20T12:34:13;96470.69;;;25.75;35.65
25855;BME280;13680;49.936;11.344;2023-07-20T12:36:38;96470.59;;;25.86;36.05
25855;BME280;13680;49.936;11.344;2023-07-20T12:39:04;96465.94;;;26.21;34.89
25855;BME280;13680;49.936;11.344;2023-07-20T12:41:30;96475.38;;;26.23;35.98
25855;BME280;13680;49.936;11.344;2023-07-20T12:43:55;96460.09;;;26.15;34.38
25855;BME280;13680;49.936;11.344;2023-07-20T12:46:23;96460.75;;;25.85;34.04
25855;BME280;13680;49.936;11.344;2023-07-20T12:48:49;96454.47;;;26.26;34.22
25855;BME280;13680;49.936;11.344;2023-07-20T12:51:14;96445.41;;;27.18;33.96
25855;BME280;13680;49.936;11.344;2023-07-20T12:53:39;96436.13;;;28.07;32.75
25855;BME280;13680;49.936;11.344;2023-07-20T12:56:05;96439.94;;;28.53;30.36
25855;BME280;13680;49.936;11.344;2023-07-20T12:58:30;96437.38;;;28.63;30.05